createdAt,value
2022-10-10T00:00:14.634Z,7.05
2022-10-10T00:00:47.356Z,6.75
2022-10-10T00:01:19.725Z,7.03
2022-10-10T00:01:54.553Z,7.32
2022-10-10T00:02:26.934Z,7.70
2022-10-10T00:02:59.173Z,6.53
2022-10-10T00:03:34.002Z,7.30
2022-10-10T00:04:06.366Z,7.50
2022-10-10T00:04:38.694Z,6.85
2022-10-10T00:05:13.538Z,7.95
2022-10-10T00:05:46.440Z,7.35
2022-10-10T00:06:19.130Z,6.80
2022-10-10T00:06:51.474Z,7.00
2022-10-10T00:07:26.288Z,7.82
2022-10-10T00:07:58.509Z,7.88
2022-10-10T00:08:30.726Z,7.70
2022-10-10T00:09:08.719Z,7.80
2022-10-10T00:09:41.039Z,8.40
2022-10-10T00:10:13.773Z,8.68
2022-10-10T00:10:48.733Z,8.50
2022-10-10T00:11:24.324Z,8.45
2022-10-10T00:11:56.607Z,8.00
2022-10-10T00:12:31.405Z,7.00
2022-10-10T00:13:03.934Z,7.50
2022-10-10T00:13:36.574Z,7.40
2022-10-10T00:14:11.413Z,6.93
2022-10-10T00:14:43.659Z,6.25
2022-10-10T00:15:16.405Z,7.88
2022-10-10T00:15:51.228Z,6.63
2022-10-10T00:16:23.513Z,6.80
2022-10-10T00:16:55.734Z,6.50
2022-10-10T00:17:30.632Z,6.30
2022-10-10T00:18:03.666Z,7.40
2022-10-10T00:18:36.940Z,6.68
2022-10-10T00:19:11.762Z,7.78
2022-10-10T00:19:44.045Z,6.22
2022-10-10T00:20:18.761Z,7.80
2022-10-10T00:20:54.413Z,6.75
2022-10-10T00:21:26.686Z,6.77
2022-10-10T00:21:58.918Z,6.10
2022-10-10T00:22:33.746Z,8.10
2022-10-10T00:23:05.982Z,8.30
2022-10-10T00:23:38.506Z,7.10
2022-10-10T00:24:15.933Z,5.68
2022-10-10T00:24:48.171Z,7.35
2022-10-10T00:25:20.602Z,6.68
2022-10-10T00:25:52.920Z,7.07
2022-10-10T00:26:27.737Z,7.40
2022-10-10T00:26:59.965Z,6.93
2022-10-10T00:27:32.306Z,5.70
2022-10-10T00:28:08.091Z,6.28
2022-10-10T00:28:40.385Z,6.38
2022-10-10T00:29:12.650Z,6.13
2022-10-10T00:29:47.499Z,5.33
2022-10-10T00:30:19.937Z,5.95
2022-10-10T00:30:52.471Z,6.38
2022-10-10T00:31:27.307Z,7.30
2022-10-10T00:31:59.528Z,6.35
2022-10-10T00:32:31.769Z,5.90
2022-10-10T00:33:06.679Z,5.60
2022-10-10T00:33:38.915Z,5.43
2022-10-10T00:34:11.126Z,5.97
2022-10-10T00:34:45.971Z,5.90
2022-10-10T00:35:19.802Z,6.25
2022-10-10T00:35:52.014Z,6.07
2022-10-10T00:36:26.837Z,5.38
2022-10-10T00:36:59.059Z,6.57
2022-10-10T00:37:31.304Z,6.38
2022-10-10T00:38:06.543Z,6.30
2022-10-10T00:38:38.834Z,5.70
2022-10-10T00:39:16.275Z,5.53
2022-10-10T00:39:48.783Z,6.57
2022-10-10T00:40:21.126Z,6.07
2022-10-10T00:40:55.506Z,6.50
2022-10-10T00:41:30.341Z,6.10
2022-10-10T00:42:02.545Z,7.13
2022-10-10T00:42:34.765Z,5.72
2022-10-10T00:43:09.574Z,6.95
2022-10-10T00:43:41.811Z,6.70
2022-10-10T00:44:15.347Z,6.55
2022-10-10T00:45:10.732Z,5.72
2022-10-10T00:45:45.223Z,6.93
2022-10-10T00:46:17.432Z,6.40
2022-10-10T00:46:52.269Z,5.88
2022-10-10T00:47:24.502Z,5.53
2022-10-10T00:47:59.425Z,5.90
2022-10-10T00:48:35.595Z,5.37
2022-10-10T00:49:11.489Z,5.63
2022-10-10T00:49:47.630Z,5.80
2022-10-10T00:50:22.498Z,5.90
2022-10-10T00:50:59.733Z,5.65
2022-10-10T00:51:32.089Z,6.18
2022-10-10T00:52:04.715Z,5.80
2022-10-10T00:52:36.982Z,5.47
2022-10-10T00:53:12.795Z,5.53
2022-10-10T00:53:47.907Z,6.25
2022-10-10T00:54:23.909Z,5.85
2022-10-10T00:54:56.129Z,5.80
2022-10-10T00:55:31.058Z,5.80
2022-10-10T00:56:04.216Z,6.90
2022-10-10T00:56:38.774Z,5.53
2022-10-10T00:57:15.240Z,5.75
2022-10-10T00:57:47.737Z,5.50
2022-10-10T00:58:20.913Z,5.20
2022-10-10T00:58:57.614Z,5.63
2022-10-10T00:59:31.408Z,5.70
2022-10-10T01:00:05.458Z,5.43
2022-10-10T01:00:40.388Z,6.00
2022-10-10T01:01:12.866Z,5.43
2022-10-10T01:01:45.153Z,5.32
2022-10-10T01:02:19.982Z,10.57
2022-10-10T01:02:52.791Z,5.10
2022-10-10T01:03:26.041Z,5.73
2022-10-10T01:04:01.296Z,6.28
2022-10-10T01:04:36.172Z,5.32
2022-10-10T01:05:09.250Z,5.13
2022-10-10T01:05:44.738Z,4.78
2022-10-10T01:06:16.989Z,5.05
2022-10-10T01:06:49.250Z,5.30
2022-10-10T01:07:23.290Z,4.60
2022-10-10T01:07:58.697Z,5.68
2022-10-10T01:08:30.922Z,5.13
2022-10-10T01:09:03.242Z,9.77
2022-10-10T01:09:41.990Z,4.72
2022-10-10T01:10:16.194Z,5.28
2022-10-10T01:11:15.116Z,5.03
2022-10-10T01:11:51.142Z,4.95
2022-10-10T01:12:27.909Z,4.78
2022-10-10T01:13:12.577Z,6.30
2022-10-10T01:13:51.006Z,5.00
2022-10-10T01:14:31.219Z,4.63
2022-10-10T01:15:11.909Z,4.80
2022-10-10T01:15:50.235Z,6.45
2022-10-10T01:16:28.640Z,4.80
2022-10-10T01:17:09.189Z,5.10
2022-10-10T01:17:44.618Z,5.07
2022-10-10T01:18:22.613Z,5.10
2022-10-10T01:19:03.292Z,4.65
2022-10-10T01:20:04.731Z,4.55
2022-10-10T01:20:56.465Z,4.95
2022-10-10T01:21:33.310Z,5.38
2022-10-10T01:22:17.533Z,5.93
2022-10-10T01:23:00.003Z,5.05
2022-10-10T01:24:04.926Z,5.10
2022-10-10T01:24:50.632Z,4.70
2022-10-10T01:25:28.131Z,4.97
2022-10-10T01:26:13.202Z,4.80
2022-10-10T01:27:17.109Z,4.75
2022-10-10T01:27:52.433Z,4.88
2022-10-10T01:28:39.258Z,4.63
2022-10-10T01:29:15.674Z,5.35
2022-10-10T01:29:50.827Z,5.10
2022-10-10T01:30:26.815Z,5.10
2022-10-10T01:30:59.618Z,6.22
2022-10-10T01:31:32.446Z,4.65
2022-10-10T01:32:09.393Z,5.10
2022-10-10T01:32:49.666Z,5.07
2022-10-10T01:33:28.158Z,5.05
2022-10-10T01:34:04.632Z,4.95
2022-10-10T01:34:41.724Z,5.70
2022-10-10T01:35:30.318Z,4.38
2022-10-10T01:36:07.259Z,5.20
2022-10-10T01:36:44.887Z,5.28
2022-10-10T01:37:21.882Z,5.20
2022-10-10T01:38:00.280Z,4.90
2022-10-10T01:38:38.806Z,5.43
2022-10-10T01:39:18.130Z,5.13
2022-10-10T01:39:57.242Z,5.20
2022-10-10T01:40:31.994Z,4.65
2022-10-10T01:41:09.574Z,4.60
2022-10-10T01:41:45.882Z,4.20
2022-10-10T01:42:20.897Z,5.25
2022-10-10T01:42:57.878Z,4.57
2022-10-10T01:43:32.718Z,4.97
2022-10-10T01:44:05.026Z,4.78
2022-10-10T01:44:37.227Z,5.28
2022-10-10T01:45:12.865Z,4.75
2022-10-10T01:45:45.494Z,5.75
2022-10-10T01:46:19.491Z,4.28
2022-10-10T01:46:54.398Z,4.40
2022-10-10T01:47:26.650Z,4.17
2022-10-10T01:48:01.025Z,5.43
2022-10-10T01:48:35.954Z,4.40
2022-10-10T01:49:08.458Z,4.90
2022-10-10T01:49:43.141Z,5.03
2022-10-10T01:50:20.045Z,5.47
2022-10-10T01:51:08.611Z,4.50
2022-10-10T01:51:56.351Z,4.82
2022-10-10T01:52:38.976Z,3.88
2022-10-10T01:53:15.186Z,4.50
2022-10-10T01:53:51.704Z,4.53
2022-10-10T01:54:36.775Z,4.95
2022-10-10T01:55:27.426Z,3.92
2022-10-10T01:56:03.917Z,4.95
2022-10-10T01:56:43.711Z,3.85
2022-10-10T01:57:21.392Z,4.45
2022-10-10T01:58:01.201Z,4.63
2022-10-10T01:59:00.722Z,4.40
2022-10-10T01:59:41.653Z,4.13
2022-10-10T02:00:15.045Z,4.57
2022-10-10T02:00:50.759Z,4.45
2022-10-10T02:01:30.355Z,4.22
2022-10-10T02:02:06.639Z,4.22
2022-10-10T02:02:45.038Z,4.60
2022-10-10T02:03:22.646Z,4.38
2022-10-10T02:03:59.009Z,4.57
2022-10-10T02:04:35.403Z,4.43
2022-10-10T02:05:17.234Z,4.13
2022-10-10T02:05:54.325Z,4.95
2022-10-10T02:06:30.003Z,4.68
2022-10-10T02:07:08.559Z,3.95
2022-10-10T02:07:44.210Z,4.40
2022-10-10T02:08:21.758Z,4.33
2022-10-10T02:08:59.990Z,3.80
2022-10-10T02:09:36.652Z,4.28
2022-10-10T02:10:10.834Z,4.20
2022-10-10T02:10:49.891Z,4.03
2022-10-10T02:11:23.146Z,4.60
2022-10-10T02:11:56.597Z,4.00
2022-10-10T02:12:32.534Z,4.20
2022-10-10T02:13:05.965Z,4.50
2022-10-10T02:13:42.954Z,4.38
2022-10-10T02:14:23.005Z,4.45
2022-10-10T02:14:58.049Z,4.10
2022-10-10T02:15:35.422Z,3.65
2022-10-10T02:16:16.603Z,3.70
2022-10-10T02:16:51.601Z,4.80
2022-10-10T02:17:25.247Z,4.40
2022-10-10T02:18:00.753Z,4.60
2022-10-10T02:18:34.291Z,4.20
2022-10-10T02:19:07.996Z,4.23
2022-10-10T02:19:46.757Z,3.90
2022-10-10T02:20:21.701Z,4.50
2022-10-10T02:20:54.152Z,3.63
2022-10-10T02:21:30.057Z,4.28
2022-10-10T02:22:02.522Z,4.30
2022-10-10T02:22:35.302Z,3.92
2022-10-10T02:23:10.370Z,3.90
2022-10-10T02:23:44.447Z,4.20
2022-10-10T02:24:19.672Z,4.13
2022-10-10T02:24:52.851Z,4.00
2022-10-10T02:25:28.299Z,3.60
2022-10-10T02:26:03.299Z,3.53
2022-10-10T02:26:36.864Z,3.80
2022-10-10T02:27:14.382Z,3.85
2022-10-10T02:27:53.157Z,4.20
2022-10-10T02:28:28.668Z,3.60
2022-10-10T02:29:04.771Z,3.95
2022-10-10T02:29:44.481Z,3.80
2022-10-10T02:30:17.040Z,4.35
2022-10-10T02:30:50.732Z,4.20
2022-10-10T02:31:31.420Z,4.65
2022-10-10T02:32:05.847Z,4.73
2022-10-10T02:32:41.395Z,6.13
2022-10-10T02:33:17.485Z,5.85
2022-10-10T02:33:52.605Z,5.63
2022-10-10T02:34:28.097Z,5.85
2022-10-10T02:35:08.005Z,5.82
2022-10-10T02:35:42.332Z,5.43
2022-10-10T02:36:15.118Z,6.15
2022-10-10T02:36:52.533Z,5.67
2022-10-10T02:37:25.718Z,5.30
2022-10-10T02:37:59.174Z,4.35
2022-10-10T02:38:34.249Z,4.35
2022-10-10T02:39:07.407Z,5.00
2022-10-10T02:39:42.214Z,4.60
2022-10-10T02:40:20.415Z,4.93
2022-10-10T02:40:53.685Z,4.20
2022-10-10T02:41:26.401Z,3.72
2022-10-10T02:42:01.261Z,4.23
2022-10-10T02:42:34.295Z,4.63
2022-10-10T02:43:08.108Z,4.33
2022-10-10T02:43:43.043Z,3.93
2022-10-10T02:44:15.454Z,4.00
2022-10-10T02:44:50.901Z,3.42
2022-10-10T02:45:26.360Z,3.50
2022-10-10T02:45:59.934Z,4.30
2022-10-10T02:46:32.190Z,4.10
2022-10-10T02:47:07.382Z,3.83
2022-10-10T02:47:39.601Z,3.67
2022-10-10T02:48:11.875Z,3.60
2022-10-10T02:48:46.864Z,3.50
2022-10-10T02:49:24.094Z,4.07
2022-10-10T02:49:56.305Z,4.07
2022-10-10T02:50:32.497Z,3.27
2022-10-10T02:51:05.178Z,3.17
2022-10-10T02:51:37.804Z,3.10
2022-10-10T02:52:12.869Z,3.70
2022-10-10T02:52:45.344Z,3.87
2022-10-10T02:53:17.574Z,3.00
2022-10-10T02:53:49.819Z,3.30
2022-10-10T02:54:24.663Z,3.40
2022-10-10T02:54:56.879Z,3.00
2022-10-10T02:55:29.106Z,2.93
2022-10-10T02:56:03.932Z,2.97
2022-10-10T02:56:36.165Z,3.80
2022-10-10T02:57:08.432Z,3.50
2022-10-10T02:57:40.685Z,4.30
2022-10-10T02:58:15.727Z,3.33
2022-10-10T02:58:48.042Z,3.40
2022-10-10T02:59:20.764Z,3.57
2022-10-10T02:59:58.180Z,4.20
2022-10-10T03:00:30.441Z,3.20
2022-10-10T03:01:02.846Z,3.20
2022-10-10T03:01:35.141Z,3.43
2022-10-10T03:02:09.976Z,3.63
2022-10-10T03:02:42.280Z,3.37
2022-10-10T03:03:14.488Z,3.70
2022-10-10T03:03:49.346Z,4.00
2022-10-10T03:04:21.563Z,3.87
2022-10-10T03:04:53.813Z,3.50
2022-10-10T03:05:28.623Z,3.30
2022-10-10T03:06:00.845Z,3.40
2022-10-10T03:06:33.102Z,3.77
2022-10-10T03:07:08.075Z,3.33
2022-10-10T03:07:40.314Z,3.43
2022-10-10T03:08:12.549Z,3.53
2022-10-10T03:08:44.762Z,3.00
2022-10-10T03:09:19.613Z,3.10
2022-10-10T03:09:51.955Z,3.47
2022-10-10T03:10:24.213Z,3.77
2022-10-10T03:11:00.301Z,3.20
2022-10-10T03:11:32.792Z,3.73
2022-10-10T03:12:05.456Z,3.43
2022-10-10T03:12:40.298Z,3.20
2022-10-10T03:13:12.541Z,3.37
2022-10-10T03:13:44.746Z,3.87
2022-10-10T03:14:16.994Z,2.77
2022-10-10T03:14:51.800Z,2.93
2022-10-10T03:15:26.703Z,3.33
2022-10-10T03:15:58.913Z,3.00
2022-10-10T03:16:33.759Z,3.20
2022-10-10T03:17:06.014Z,3.43
2022-10-10T03:17:38.230Z,3.47
2022-10-10T03:18:13.070Z,3.57
2022-10-10T03:18:45.358Z,3.47
2022-10-10T03:19:17.573Z,4.00
2022-10-10T03:19:52.387Z,4.27
2022-10-10T03:20:24.747Z,4.27
2022-10-10T03:20:56.990Z,4.20
2022-10-10T03:21:31.953Z,3.97
2022-10-10T03:22:04.246Z,3.60
2022-10-10T03:22:36.517Z,3.80
2022-10-10T03:23:11.348Z,4.70
2022-10-10T03:23:43.615Z,4.00
2022-10-10T03:24:16.049Z,3.57
2022-10-10T03:24:50.863Z,4.30
2022-10-10T03:25:23.302Z,3.50
2022-10-10T03:25:55.674Z,3.87
2022-10-10T03:26:30.503Z,3.83
2022-10-10T03:27:02.713Z,3.37
2022-10-10T03:27:35.016Z,3.30
2022-10-10T03:28:09.896Z,3.47
2022-10-10T03:28:42.367Z,4.23
2022-10-10T03:29:14.662Z,4.00
2022-10-10T03:29:49.518Z,3.93
2022-10-10T03:30:21.742Z,4.07
2022-10-10T03:30:56.626Z,3.67
2022-10-10T03:31:31.698Z,3.90
2022-10-10T03:32:06.866Z,3.77
2022-10-10T03:32:41.230Z,4.03
2022-10-10T03:33:16.295Z,3.70
2022-10-10T03:33:48.514Z,3.77
2022-10-10T03:34:20.774Z,4.00
2022-10-10T03:34:55.591Z,3.90
2022-10-10T03:35:27.970Z,3.40
2022-10-10T03:36:00.198Z,4.03
2022-10-10T03:36:35.031Z,3.37
2022-10-10T03:37:07.253Z,4.20
2022-10-10T03:37:39.510Z,3.97
2022-10-10T03:38:15.718Z,4.43
2022-10-10T03:38:47.925Z,3.30
2022-10-10T03:39:20.144Z,3.33
2022-10-10T03:39:55.369Z,3.50
2022-10-10T03:40:28.551Z,3.60
2022-10-10T03:41:00.776Z,3.97
2022-10-10T03:41:35.606Z,3.43
2022-10-10T03:42:08.303Z,3.50
2022-10-10T03:42:40.507Z,3.77
2022-10-10T03:43:16.606Z,3.93
2022-10-10T03:43:48.860Z,3.53
2022-10-10T03:44:21.085Z,3.57
2022-10-10T03:44:55.933Z,3.17
2022-10-10T03:45:28.180Z,3.27
2022-10-10T03:46:03.083Z,3.27
2022-10-10T03:46:37.894Z,3.53
2022-10-10T03:47:10.105Z,3.40
2022-10-10T03:47:42.333Z,3.23
2022-10-10T03:48:17.774Z,3.67
2022-10-10T03:48:50.218Z,3.50
2022-10-10T03:49:22.473Z,3.80
2022-10-10T03:49:57.309Z,3.63
2022-10-10T03:50:29.886Z,3.50
2022-10-10T03:51:02.135Z,3.70
2022-10-10T03:51:34.417Z,3.30
2022-10-10T03:52:09.238Z,3.17
2022-10-10T03:52:41.535Z,3.40
2022-10-10T03:53:13.746Z,3.83
2022-10-10T03:53:48.611Z,4.17
2022-10-10T03:54:20.845Z,3.83
2022-10-10T03:54:53.049Z,3.90
2022-10-10T03:55:27.906Z,3.63
2022-10-10T03:56:00.123Z,4.50
2022-10-10T03:56:32.337Z,4.43
2022-10-10T03:57:07.305Z,5.00
2022-10-10T03:57:39.514Z,5.43
2022-10-10T03:58:12.095Z,5.97
2022-10-10T03:58:46.900Z,5.80
2022-10-10T03:59:19.125Z,5.97
2022-10-10T03:59:51.488Z,6.40
2022-10-10T04:00:26.475Z,6.90
2022-10-10T04:01:03.133Z,7.20
2022-10-10T04:01:35.476Z,8.47
2022-10-10T04:02:10.307Z,8.10
2022-10-10T04:02:42.606Z,8.60
2022-10-10T04:03:14.814Z,14.63
2022-10-10T04:03:52.194Z,7.57
2022-10-10T04:04:25.359Z,9.63
2022-10-10T04:04:57.557Z,8.17
2022-10-10T04:05:32.365Z,6.53
2022-10-10T04:06:05.518Z,7.20
2022-10-10T04:06:37.735Z,7.30
2022-10-10T04:07:12.896Z,7.60
2022-10-10T04:07:45.119Z,7.23
2022-10-10T04:08:17.899Z,7.23
2022-10-10T04:08:52.724Z,7.33
2022-10-10T04:09:25.060Z,6.97
2022-10-10T04:09:57.297Z,5.63
2022-10-10T04:10:32.113Z,4.40
2022-10-10T04:11:04.441Z,5.80
2022-10-10T04:11:38.709Z,5.87
2022-10-10T04:12:13.525Z,4.97
2022-10-10T04:12:45.756Z,4.70
2022-10-10T04:13:18.046Z,5.07
2022-10-10T04:13:52.870Z,5.28
2022-10-10T04:14:25.115Z,5.23
2022-10-10T04:14:57.325Z,4.70
2022-10-10T04:15:32.750Z,5.43
2022-10-10T04:16:07.680Z,4.80
2022-10-10T04:16:39.918Z,5.53
2022-10-10T04:17:14.753Z,5.37
2022-10-10T04:17:46.969Z,5.20
2022-10-10T04:18:19.246Z,5.40
2022-10-10T04:18:54.173Z,5.77
2022-10-10T04:19:26.527Z,6.10
2022-10-10T04:19:58.761Z,6.10
2022-10-10T04:20:31.169Z,5.77
2022-10-10T04:21:06.193Z,6.27
2022-10-10T04:21:38.449Z,6.33
2022-10-10T04:22:11.353Z,5.97
2022-10-10T04:22:46.409Z,6.27
2022-10-10T04:23:18.668Z,7.07
2022-10-10T04:23:50.890Z,6.57
2022-10-10T04:24:25.697Z,5.83
2022-10-10T04:24:57.919Z,6.23
2022-10-10T04:25:30.154Z,5.80
2022-10-10T04:26:05.011Z,5.67
2022-10-10T04:26:37.362Z,5.90
2022-10-10T04:27:09.652Z,5.80
2022-10-10T04:27:44.474Z,5.87
2022-10-10T04:28:16.888Z,5.60
2022-10-10T04:28:49.536Z,5.63
2022-10-10T04:29:24.337Z,5.50
2022-10-10T04:29:56.619Z,5.40
2022-10-10T04:30:30.167Z,5.70
2022-10-10T04:31:04.983Z,5.20
2022-10-10T04:31:39.804Z,5.43
2022-10-10T04:32:12.074Z,5.43
2022-10-10T04:32:46.933Z,5.77
2022-10-10T04:33:19.162Z,5.30
2022-10-10T04:33:51.382Z,6.17
2022-10-10T04:34:26.214Z,4.87
2022-10-10T04:34:58.492Z,4.80
2022-10-10T04:35:30.715Z,4.83
2022-10-10T04:36:02.960Z,5.07
2022-10-10T04:36:37.767Z,5.60
2022-10-10T04:37:09.987Z,3.70
2022-10-10T04:37:42.216Z,5.53
2022-10-10T04:38:17.646Z,5.00
2022-10-10T04:38:49.874Z,4.30
2022-10-10T04:39:22.538Z,5.07
2022-10-10T04:39:57.426Z,4.73
2022-10-10T04:40:29.671Z,5.23
2022-10-10T04:41:01.962Z,4.97
2022-10-10T04:41:36.862Z,4.27
2022-10-10T04:42:09.178Z,4.73
2022-10-10T04:42:41.458Z,4.77
2022-10-10T04:43:16.293Z,4.63
2022-10-10T04:43:48.506Z,4.90
2022-10-10T04:44:20.719Z,4.77
2022-10-10T04:44:55.529Z,4.90
2022-10-10T04:45:27.767Z,4.80
2022-10-10T04:46:02.602Z,5.30
2022-10-10T04:46:34.820Z,5.30
2022-10-10T04:47:09.929Z,4.93
2022-10-10T04:47:44.874Z,4.53
2022-10-10T04:48:17.091Z,4.90
2022-10-10T04:48:49.299Z,4.20
2022-10-10T04:49:24.385Z,4.80
2022-10-10T04:49:56.594Z,4.27
2022-10-10T04:50:28.935Z,5.03
2022-10-10T04:51:03.835Z,4.97
2022-10-10T04:51:36.098Z,4.57
2022-10-10T04:52:08.431Z,4.63
2022-10-10T04:52:43.263Z,10.90
2022-10-10T04:53:15.485Z,5.37
2022-10-10T04:53:50.419Z,4.03
2022-10-10T04:54:25.606Z,4.93
2022-10-10T04:54:57.861Z,5.00
2022-10-10T04:55:30.092Z,5.07
2022-10-10T04:56:04.946Z,4.30
2022-10-10T04:56:37.184Z,4.30
2022-10-10T04:57:09.521Z,4.47
2022-10-10T04:57:44.417Z,4.60
2022-10-10T04:58:16.674Z,4.30
2022-10-10T04:58:48.903Z,4.17
2022-10-10T04:59:23.748Z,3.60
2022-10-10T04:59:55.958Z,4.30
2022-10-10T05:00:28.171Z,4.33
2022-10-10T05:01:04.384Z,3.70
2022-10-10T05:01:36.710Z,4.13
2022-10-10T05:02:11.594Z,4.50
2022-10-10T05:02:46.601Z,4.93
2022-10-10T05:03:18.829Z,5.90
2022-10-10T05:03:51.066Z,4.70
2022-10-10T05:04:25.926Z,4.60
2022-10-10T05:04:58.146Z,5.07
2022-10-10T05:05:30.512Z,5.30
2022-10-10T05:06:05.337Z,5.77
2022-10-10T05:06:37.546Z,5.90
2022-10-10T05:07:09.769Z,5.10
2022-10-10T05:07:44.686Z,5.70
2022-10-10T05:08:17.209Z,5.40
2022-10-10T05:08:49.435Z,6.17
2022-10-10T05:09:24.241Z,5.63
2022-10-10T05:09:56.559Z,5.07
2022-10-10T05:10:31.389Z,5.70
2022-10-10T05:11:03.633Z,5.63
2022-10-10T05:11:35.886Z,6.60
2022-10-10T05:12:10.729Z,6.50
2022-10-10T05:12:42.989Z,5.87
2022-10-10T05:13:16.140Z,5.70
2022-10-10T05:13:51.655Z,6.07
2022-10-10T05:14:23.862Z,5.63
2022-10-10T05:14:56.073Z,5.30
2022-10-10T05:15:31.385Z,6.18
2022-10-10T05:16:03.693Z,6.40
2022-10-10T05:16:35.931Z,5.80
2022-10-10T05:17:10.839Z,6.23
2022-10-10T05:17:45.704Z,6.10
2022-10-10T05:18:17.961Z,6.78
2022-10-10T05:18:52.765Z,6.67
2022-10-10T05:19:25.159Z,6.45
2022-10-10T05:19:57.380Z,6.80
2022-10-10T05:20:32.262Z,6.00
2022-10-10T05:21:04.675Z,6.50
2022-10-10T05:21:36.908Z,6.70
2022-10-10T05:22:11.737Z,6.53
2022-10-10T05:22:44.126Z,5.73
2022-10-10T05:23:17.229Z,6.43
2022-10-10T05:23:52.051Z,6.50
2022-10-10T05:24:24.560Z,6.53
2022-10-10T05:24:59.133Z,6.20
2022-10-10T05:25:34.590Z,6.60
2022-10-10T05:26:06.994Z,6.87
2022-10-10T05:26:43.060Z,5.80
2022-10-10T05:27:18.224Z,6.23
2022-10-10T05:27:50.453Z,6.38
2022-10-10T05:28:22.770Z,5.80
2022-10-10T05:28:57.612Z,5.57
2022-10-10T05:29:29.855Z,5.90
2022-10-10T05:30:02.068Z,5.57
2022-10-10T05:30:36.926Z,5.97
2022-10-10T05:31:09.835Z,5.60
2022-10-10T05:31:42.092Z,6.05
2022-10-10T05:32:16.904Z,5.90
2022-10-10T05:32:52.111Z,6.00
2022-10-10T05:33:24.619Z,5.65
2022-10-10T05:33:59.442Z,5.93
2022-10-10T05:34:31.654Z,5.87
2022-10-10T05:35:04.817Z,5.55
2022-10-10T05:35:40.162Z,6.25
2022-10-10T05:36:13.613Z,5.90
2022-10-10T05:36:45.837Z,5.40
2022-10-10T05:37:21.177Z,5.70
2022-10-10T05:37:53.384Z,6.10
2022-10-10T05:38:25.711Z,5.70
2022-10-10T05:39:01.953Z,6.03
2022-10-10T05:39:34.181Z,5.13
2022-10-10T05:40:07.927Z,6.10
2022-10-10T05:40:43.005Z,6.30
2022-10-10T05:41:15.445Z,6.13
2022-10-10T05:41:47.728Z,5.40
2022-10-10T05:42:22.546Z,6.47
2022-10-10T05:42:54.760Z,6.37
2022-10-10T05:43:26.989Z,6.13
2022-10-10T05:44:01.804Z,6.17
2022-10-10T05:44:34.038Z,6.18
2022-10-10T05:45:07.422Z,5.80
2022-10-10T05:45:42.244Z,6.03
2022-10-10T05:46:14.586Z,6.13
2022-10-10T05:46:46.849Z,5.77
2022-10-10T05:47:26.805Z,5.57
2022-10-10T05:48:02.583Z,5.40
2022-10-10T05:48:34.893Z,6.40
2022-10-10T05:49:09.697Z,5.20
2022-10-10T05:49:41.905Z,5.80
2022-10-10T05:50:30.621Z,5.80
2022-10-10T05:51:02.852Z,5.67
2022-10-10T05:51:35.134Z,5.60
2022-10-10T05:52:09.995Z,5.63
2022-10-10T05:52:42.202Z,5.50
2022-10-10T05:53:14.418Z,6.23
2022-10-10T05:53:49.971Z,5.87
2022-10-10T05:54:22.540Z,5.50
2022-10-10T05:54:54.789Z,6.35
2022-10-10T05:55:29.619Z,5.40
2022-10-10T05:56:02.135Z,5.67
2022-10-10T05:56:34.354Z,6.00
2022-10-10T05:57:12.704Z,6.38
2022-10-10T05:57:47.655Z,5.80
2022-10-10T05:58:20.158Z,6.03
2022-10-10T05:58:55.006Z,5.95
2022-10-10T05:59:28.738Z,5.60
2022-10-10T06:00:00.967Z,5.95
2022-10-10T06:00:36.695Z,6.03
2022-10-10T06:01:08.926Z,6.10
2022-10-10T06:01:41.169Z,7.63
2022-10-10T06:02:16.503Z,5.07
2022-10-10T06:02:49.094Z,6.43
2022-10-10T06:03:24.122Z,5.63
2022-10-10T06:03:58.958Z,5.93
2022-10-10T06:04:31.189Z,5.60
2022-10-10T06:05:04.833Z,5.80
2022-10-10T06:05:40.062Z,6.33
2022-10-10T06:06:12.282Z,5.85
2022-10-10T06:06:47.188Z,5.50
2022-10-10T06:07:19.425Z,5.80
2022-10-10T06:08:07.560Z,5.83
2022-10-10T06:08:45.522Z,6.27
2022-10-10T06:09:17.970Z,5.93
2022-10-10T06:09:50.173Z,6.17
2022-10-10T06:10:25.002Z,6.70
2022-10-10T06:11:02.041Z,5.53
2022-10-10T06:11:37.160Z,6.10
2022-10-10T06:12:09.439Z,6.20
2022-10-10T06:12:41.657Z,7.00
2022-10-10T06:13:23.129Z,7.27
2022-10-10T06:13:57.227Z,6.72
2022-10-10T06:14:32.040Z,7.50
2022-10-10T06:15:04.923Z,7.27
2022-10-10T06:15:37.263Z,9.20
2022-10-10T06:16:12.338Z,7.73
2022-10-10T06:16:46.027Z,7.63
2022-10-10T06:17:18.461Z,6.77
2022-10-10T06:17:53.278Z,6.97
2022-10-10T06:18:28.226Z,7.27
2022-10-10T06:19:03.107Z,7.67
2022-10-10T06:19:35.341Z,7.43
2022-10-10T06:20:08.897Z,6.93
2022-10-10T06:20:44.046Z,7.25
2022-10-10T06:21:16.581Z,7.10
2022-10-10T06:21:52.021Z,7.73
2022-10-10T06:22:24.574Z,7.50
2022-10-10T06:22:56.881Z,7.43
2022-10-10T06:23:31.861Z,6.87
2022-10-10T06:24:04.371Z,6.20
2022-10-10T06:24:39.189Z,6.35
2022-10-10T06:25:29.013Z,5.78
2022-10-10T06:26:06.522Z,5.40
2022-10-10T06:26:38.779Z,5.90
2022-10-10T06:27:10.993Z,6.20
2022-10-10T06:27:45.843Z,5.70
2022-10-10T06:28:18.089Z,5.50
2022-10-10T06:28:50.993Z,5.90
2022-10-10T06:29:25.842Z,6.37
2022-10-10T06:29:58.058Z,6.03
2022-10-10T06:30:30.473Z,6.00
2022-10-10T06:31:08.377Z,6.33
2022-10-10T06:31:41.370Z,6.20
2022-10-10T06:32:13.589Z,5.47
2022-10-10T06:32:48.604Z,5.30
2022-10-10T06:33:21.217Z,5.32
2022-10-10T06:33:56.069Z,5.13
2022-10-10T06:34:31.016Z,5.60
2022-10-10T06:35:03.795Z,5.93
2022-10-10T06:35:39.375Z,5.90
2022-10-10T06:36:15.806Z,5.40
2022-10-10T06:36:49.794Z,6.20
2022-10-10T06:37:22.033Z,6.10
2022-10-10T06:37:56.841Z,5.67
2022-10-10T06:38:29.059Z,5.40
2022-10-10T06:39:01.347Z,5.67
2022-10-10T06:39:36.183Z,6.07
2022-10-10T06:40:09.058Z,6.28
2022-10-10T06:40:41.430Z,5.63
2022-10-10T06:41:16.603Z,5.90
2022-10-10T06:41:49.198Z,6.37
2022-10-10T06:42:24.064Z,5.47
2022-10-10T06:43:07.246Z,5.40
2022-10-10T06:43:39.577Z,5.50
2022-10-10T06:44:14.723Z,5.77
2022-10-10T06:44:46.948Z,5.23
2022-10-10T06:45:19.231Z,5.23
2022-10-10T06:45:54.434Z,5.80
2022-10-10T06:46:26.934Z,5.47
2022-10-10T06:46:59.174Z,5.20
2022-10-10T06:47:34.185Z,5.47
2022-10-10T06:48:06.693Z,5.23
2022-10-10T06:48:38.981Z,5.20
2022-10-10T06:49:16.431Z,5.43
2022-10-10T06:49:48.665Z,6.00
2022-10-10T06:50:20.904Z,5.63
2022-10-10T06:50:59.955Z,5.23
2022-10-10T06:51:32.570Z,5.37
2022-10-10T06:52:07.624Z,5.23
2022-10-10T06:52:41.025Z,5.23
2022-10-10T06:53:13.243Z,5.47
2022-10-10T06:53:48.646Z,5.40
2022-10-10T06:54:21.006Z,5.63
2022-10-10T06:54:53.341Z,5.25
2022-10-10T06:55:28.202Z,5.37
2022-10-10T06:56:00.659Z,5.40
2022-10-10T06:56:35.534Z,5.33
2022-10-10T06:57:07.753Z,5.15
2022-10-10T06:57:39.960Z,5.47
2022-10-10T06:58:14.934Z,4.93
2022-10-10T06:58:47.689Z,4.88
2022-10-10T06:59:22.623Z,5.60
2022-10-10T06:59:54.880Z,5.57
2022-10-10T07:00:29.701Z,5.37
2022-10-10T07:01:03.365Z,5.17
2022-10-10T07:01:35.702Z,5.47
2022-10-10T07:02:10.640Z,5.10
2022-10-10T07:02:42.859Z,4.93
2022-10-10T07:03:15.086Z,5.07
2022-10-10T07:03:50.174Z,5.60
2022-10-10T07:04:25.010Z,4.90
2022-10-10T07:04:57.240Z,5.00
2022-10-10T07:05:32.055Z,5.05
2022-10-10T07:06:04.502Z,5.10
2022-10-10T07:06:39.790Z,5.40
2022-10-10T07:07:12.044Z,5.33
2022-10-10T07:07:44.922Z,4.63
2022-10-10T07:08:19.997Z,5.00
2022-10-10T07:08:52.211Z,5.17
2022-10-10T07:09:24.452Z,5.43
2022-10-10T07:09:59.287Z,4.70
2022-10-10T07:10:32.761Z,4.90
2022-10-10T07:11:07.795Z,5.40
2022-10-10T07:11:41.725Z,5.00
2022-10-10T07:12:14.089Z,5.20
2022-10-10T07:12:48.950Z,4.80
2022-10-10T07:13:21.536Z,5.40
2022-10-10T07:13:56.341Z,4.90
2022-10-10T07:14:28.556Z,5.22
2022-10-10T07:15:00.793Z,4.60
2022-10-10T07:15:35.637Z,4.77
2022-10-10T07:16:07.977Z,4.73
2022-10-10T07:16:43.127Z,4.43
2022-10-10T07:17:15.393Z,4.23
2022-10-10T07:17:51.964Z,4.50
2022-10-10T07:18:29.295Z,4.93
2022-10-10T07:19:01.509Z,4.90
2022-10-10T07:19:36.806Z,4.97
2022-10-10T07:20:12.538Z,5.00
2022-10-10T07:20:44.823Z,5.00
2022-10-10T07:21:19.742Z,5.03
2022-10-10T07:21:52.133Z,4.67
2022-10-10T07:22:24.602Z,4.60
2022-10-10T07:22:59.426Z,4.70
2022-10-10T07:23:32.945Z,4.90
2022-10-10T07:24:05.257Z,4.90
2022-10-10T07:24:40.089Z,4.60
2022-10-10T07:25:12.455Z,4.80
2022-10-10T07:25:44.809Z,5.03
2022-10-10T07:26:22.418Z,4.93
2022-10-10T07:27:03.499Z,5.00
2022-10-10T07:27:41.298Z,5.23
2022-10-10T07:28:13.578Z,5.13
2022-10-10T07:28:45.954Z,5.27
2022-10-10T07:29:21.058Z,5.40
2022-10-10T07:29:53.274Z,5.80
2022-10-10T07:30:26.090Z,4.35
2022-10-10T07:31:05.828Z,4.77
2022-10-10T07:31:38.077Z,5.13
2022-10-10T07:32:10.297Z,5.20
2022-10-10T07:32:45.157Z,5.20
2022-10-10T07:33:17.630Z,4.53
2022-10-10T07:33:52.674Z,4.77
2022-10-10T07:34:24.905Z,5.40
2022-10-10T07:34:59.736Z,5.57
2022-10-10T07:35:34.547Z,5.47
2022-10-10T07:36:07.778Z,6.77
2022-10-10T07:36:43.553Z,10.97
2022-10-10T07:37:15.774Z,10.27
2022-10-10T07:37:48.172Z,11.47
2022-10-10T07:38:23.238Z,5.53
2022-10-10T07:38:55.718Z,6.60